sensor_id;sensor_type;location;lat;lon;timestamp;P1;P2;P0
55076;PMS7003;40971;44.702;11.030;2024-03-02T00:08:02;17.33;17.33;11.67
55076;PMS7003;40971;44.702;11.030;2024-03-02T00:18:07;23.80;23.80;13.00
55076;PMS7003;40971;44.702;11.030;2024-03-02T00:38:23;21.80;21.60;12.00
55076;PMS7003;40971;44.702;11.030;2024-03-02T00:48:27;19.71;17.14;11.43
55076;PMS7003;40971;44.702;11.030;2024-03-02T00:58:30;13.33;13.33;7.33
55076;PMS7003;40971;44.702;11.030;2024-03-02T01:08:31;21.33;21.33;13.00
55076;PMS7003;40971;44.702;11.030;2024-03-02T01:18:35;17.00;15.00;9.57
55076;PMS7003;40971;44.702;11.030;2024-03-02T01:28:38;14.33;13.17;8.67
55076;PMS7003;40971;44.702;11.030;2024-03-02T01:38:39;15.33;13.33;10.00
55076;PMS7003;40971;44.702;11.030;2024-03-02T01:48:40;17.33;13.33;9.33
55076;PMS7003;40971;44.702;11.030;2024-03-02T01:58:44;19.57;17.14;8.86
55076;PMS7003;40971;44.702;11.030;2024-03-02T02:08:46;19.67;17.33;11.67
55076;PMS7003;40971;44.702;11.030;2024-03-02T02:18:49;13.00;12.50;9.50
55076;PMS7003;40971;44.702;11.030;2024-03-02T02:28:50;15.67;13.00;6.33
55076;PMS7003;40971;44.702;11.030;2024-03-02T02:38:54;19.00;18.00;10.00
55076;PMS7003;40971;44.702;11.030;2024-03-02T02:48:57;13.67;13.67;8.33
55076;PMS7003;40971;44.702;11.030;2024-03-02T02:58:59;13.80;13.80;6.80
55076;PMS7003;40971;44.702;11.030;2024-03-02T03:09:00;10.00;10.00;8.00
55076;PMS7003;40971;44.702;11.030;2024-03-02T03:19:04;13.00;13.00;5.67
55076;PMS7003;40971;44.702;11.030;2024-03-02T03:29:05;13.33;12.67;9.00
55076;PMS7003;40971;44.702;11.030;2024-03-02T03:39:08;10.67;10.67;7.00
55076;PMS7003;40971;44.702;11.030;2024-03-02T03:49:11;7.80;7.00;4.80
55076;PMS7003;40971;44.702;11.030;2024-03-02T03:59:12;9.50;9.00;6.00
55076;PMS7003;40971;44.702;11.030;2024-03-02T04:09:13;9.50;9.50;4.00
55076;PMS7003;40971;44.702;11.030;2024-03-02T04:19:15;12.50;12.00;7.00
55076;PMS7003;40971;44.702;11.030;2024-03-02T04:29:16;11.33;11.33;6.00
55076;PMS7003;40971;44.702;11.030;2024-03-02T04:39:17;14.00;14.00;7.00
55076;PMS7003;40971;44.702;11.030;2024-03-02T04:49:20;18.17;17.50;9.17
55076;PMS7003;40971;44.702;11.030;2024-03-02T04:59:21;7.00;7.00;5.00
55076;PMS7003;40971;44.702;11.030;2024-03-02T05:09:23;17.33;17.33;9.00
55076;PMS7003;40971;44.702;11.030;2024-03-02T05:19:24;16.00;16.00;9.00
55076;PMS7003;40971;44.702;11.030;2024-03-02T05:29:26;22.00;20.33;10.00
55076;PMS7003;40971;44.702;11.030;2024-03-02T05:39:29;23.00;21.67;13.00
55076;PMS7003;40971;44.702;11.030;2024-03-02T05:49:32;22.00;21.43;14.43
55076;PMS7003;40971;44.702;11.030;2024-03-02T05:59:33;18.67;18.67;12.00
55076;PMS7003;40971;44.702;11.030;2024-03-02T06:09:35;18.67;16.67;12.00
55076;PMS7003;40971;44.702;11.030;2024-03-02T06:19:36;18.33;18.00;10.00
55076;PMS7003;40971;44.702;11.030;2024-03-02T06:29:37;21.67;21.33;13.00
55076;PMS7003;40971;44.702;11.030;2024-03-02T06:39:41;18.29;18.29;10.57
55076;PMS7003;40971;44.702;11.030;2024-03-02T06:49:42;22.00;21.00;13.00
55076;PMS7003;40971;44.702;11.030;2024-03-02T06:59:43;24.67;24.00;15.00
55076;PMS7003;40971;44.702;11.030;2024-03-02T07:09:45;27.60;27.40;15.80
55076;PMS7003;40971;44.702;11.030;2024-03-02T07:19:49;23.14;21.86;14.43
55076;PMS7003;40971;44.702;11.030;2024-03-02T07:29:52;25.00;21.83;13.83
55076;PMS7003;40971;44.702;11.030;2024-03-02T07:39:53;23.00;19.00;12.67
55076;PMS7003;40971;44.702;11.030;2024-03-02T07:49:55;21.80;21.80;14.40
55076;PMS7003;40971;44.702;11.030;2024-03-02T07:59:57;23.67;21.67;11.67
55076;PMS7003;40971;44.702;11.030;2024-03-02T08:10:02;22.43;21.00;11.14
55076;PMS7003;40971;44.702;11.030;2024-03-02T08:20:05;19.00;18.33;11.67
55076;PMS7003;40971;44.702;11.030;2024-03-02T08:30:08;20.67;19.33;10.00
55076;PMS7003;40971;44.702;11.030;2024-03-02T08:40:13;17.14;17.00;11.00
55076;PMS7003;40971;44.702;11.030;2024-03-02T08:50:17;17.00;16.71;8.57
55076;PMS7003;40971;44.702;11.030;2024-03-02T09:00:20;15.00;13.50;8.00
55076;PMS7003;40971;44.702;11.030;2024-03-02T09:10:23;11.67;10.00;6.33
55076;PMS7003;40971;44.702;11.030;2024-03-02T09:20:27;14.33;13.00;8.00
55076;PMS7003;40971;44.702;11.030;2024-03-02T09:30:30;8.00;8.00;5.00
55076;PMS7003;40971;44.702;11.030;2024-03-02T09:40:31;14.00;13.00;7.00
55076;PMS7003;40971;44.702;11.030;2024-03-02T09:50:33;10.00;10.00;5.00
55076;PMS7003;40971;44.702;11.030;2024-03-02T10:00:34;8.00;4.50;4.00
55076;PMS7003;40971;44.702;11.030;2024-03-02T10:10:36;10.00;10.00;6.33
55076;PMS7003;40971;44.702;11.030;2024-03-02T10:20:40;8.00;8.00;4.00
55076;PMS7003;40971;44.702;11.030;2024-03-02T10:30:41;8.00;8.00;4.50
55076;PMS7003;40971;44.702;11.030;2024-03-02T10:40:46;8.67;8.00;5.00
55076;PMS7003;40971;44.702;11.030;2024-03-02T10:50:47;7.00;4.50;3.00
55076;PMS7003;40971;44.702;11.030;2024-03-02T11:00:49;10.00;10.00;4.50
55076;PMS7003;40971;44.702;11.030;2024-03-02T11:10:52;7.00;7.00;4.00
55076;PMS7003;40971;44.702;11.030;2024-03-02T11:21:01;10.67;9.33;6.33
55076;PMS7003;40971;44.702;11.030;2024-03-02T11:31:04;13.00;13.00;9.00
55076;PMS7003;40971;44.702;11.030;2024-03-02T11:41:07;12.17;12.17;6.33
55076;PMS7003;40971;44.702;11.030;2024-03-02T11:51:13;12.50;12.33;7.00
55076;PMS7003;40971;44.702;11.030;2024-03-02T12:01:15;11.00;11.00;8.50
55076;PMS7003;40971;44.702;11.030;2024-03-02T12:11:17;14.60;14.60;9.00
55076;PMS7003;40971;44.702;11.030;2024-03-02T12:21:23;14.33;14.33;9.00
55076;PMS7003;40971;44.702;11.030;2024-03-02T12:31:26;11.83;10.83;6.67
55076;PMS7003;40971;44.702;11.030;2024-03-02T12:41:29;12.83;12.83;9.00
55076;PMS7003;40971;44.702;11.030;2024-03-02T12:51:31;11.80;10.40;7.00
55076;PMS7003;40971;44.702;11.030;2024-03-02T13:01:35;12.00;12.00;8.83
55076;PMS7003;40971;44.702;11.030;2024-03-02T13:11:37;12.80;12.20;8.60
55076;PMS7003;40971;44.702;11.030;2024-03-02T13:21:39;11.00;10.20;7.80
55076;PMS7003;40971;44.702;11.030;2024-03-02T13:31:42;12.83;12.67;8.00
55076;PMS7003;40971;44.702;11.030;2024-03-02T13:41:44;14.00;12.00;8.00
55076;PMS7003;40971;44.702;11.030;2024-03-02T13:51:54;13.50;11.67;7.17
55076;PMS7003;40971;44.702;11.030;2024-03-02T14:01:55;9.00;9.00;6.00
55076;PMS7003;40971;44.702;11.030;2024-03-02T14:11:58;14.80;14.80;8.40
55076;PMS7003;40971;44.702;11.030;2024-03-02T14:22:01;13.00;13.00;7.33
55076;PMS7003;40971;44.702;11.030;2024-03-02T14:32:04;10.80;9.40;6.40
55076;PMS7003;40971;44.702;11.030;2024-03-02T14:42:05;9.00;9.00;6.00
55076;PMS7003;40971;44.702;11.030;2024-03-02T14:52:08;8.00;8.00;6.00
55076;PMS7003;40971;44.702;11.030;2024-03-02T15:02:11;10.50;10.50;7.00
55076;PMS7003;40971;44.702;11.030;2024-03-02T15:12:12;7.33;7.33;6.00
55076;PMS7003;40971;44.702;11.030;2024-03-02T15:22:14;8.00;8.00;5.50
55076;PMS7003;40971;44.702;11.030;2024-03-02T15:32:16;9.00;9.00;6.00
55076;PMS7003;40971;44.702;11.030;2024-03-02T15:42:17;8.00;8.00;5.00
55076;PMS7003;40971;44.702;11.030;2024-03-02T15:52:18;6.00;6.00;5.00
55076;PMS7003;40971;44.702;11.030;2024-03-02T16:02:19;8.00;8.00;6.00
55076;PMS7003;40971;44.702;11.030;2024-03-02T16:12:21;8.00;8.00;5.00
55076;PMS7003;40971;44.702;11.030;2024-03-02T16:22:24;8.50;8.00;5.00
55076;PMS7003;40971;44.702;11.030;2024-03-02T16:32:28;8.50;8.50;7.33
55076;PMS7003;40971;44.702;11.030;2024-03-02T16:42:30;11.40;11.40;7.00
55076;PMS7003;40971;44.702;11.030;2024-03-02T16:52:33;9.67;9.67;4.50
55076;PMS7003;40971;44.702;11.030;2024-03-02T17:02:36;13.57;12.14;7.71
55076;PMS7003;40971;44.702;11.030;2024-03-02T17:12:38;22.00;20.80;14.00
55076;PMS7003;40971;44.702;11.030;2024-03-02T17:22:40;13.80;13.20;7.20
55076;PMS7003;40971;44.702;11.030;2024-03-02T17:32:42;14.00;14.00;8.00
55076;PMS7003;40971;44.702;11.030;2024-03-02T17:42:45;17.14;17.14;12.00
55076;PMS7003;40971;44.702;11.030;2024-03-02T17:52:48;16.17;16.17;10.50
55076;PMS7003;40971;44.702;11.030;2024-03-02T18:02:49;17.00;17.00;13.00
55076;PMS7003;40971;44.702;11.030;2024-03-02T18:12:52;20.50;19.67;12.83
55076;PMS7003;40971;44.702;11.030;2024-03-02T18:22:54;16.00;16.00;11.00
55076;PMS7003;40971;44.702;11.030;2024-03-02T18:32:58;21.67;21.67;14.00
55076;PMS7003;40971;44.702;11.030;2024-03-02T18:42:59;22.00;20.33;11.67
55076;PMS7003;40971;44.702;11.030;2024-03-02T18:53:03;21.67;19.67;13.00
55076;PMS7003;40971;44.702;11.030;2024-03-02T19:03:06;23.43;23.43;13.14
55076;PMS7003;40971;44.702;11.030;2024-03-02T19:13:07;18.67;18.67;13.00
55076;PMS7003;40971;44.702;11.030;2024-03-02T19:23:09;25.67;25.67;14.67
55076;PMS7003;40971;44.702;11.030;2024-03-02T19:33:10;35.00;33.00;20.67
55076;PMS7003;40971;44.702;11.030;2024-03-02T19:43:15;33.40;31.20;21.60
55076;PMS7003;40971;44.702;11.030;2024-03-02T19:53:19;36.00;36.00;23.40
55076;PMS7003;40971;44.702;11.030;2024-03-02T20:03:20;27.40;27.40;18.20
55076;PMS7003;40971;44.702;11.030;2024-03-02T20:13:24;31.20;29.80;21.20
55076;PMS7003;40971;44.702;11.030;2024-03-02T20:23:26;31.00;30.60;20.60
55076;PMS7003;40971;44.702;11.030;2024-03-02T20:33:27;44.67;39.67;25.00
55076;PMS7003;40971;44.702;11.030;2024-03-02T20:43:31;28.50;28.50;21.38
55076;PMS7003;40971;44.702;11.030;2024-03-02T20:53:35;31.00;31.00;21.00
55076;PMS7003;40971;44.702;11.030;2024-03-02T21:03:36;39.33;36.00;24.00
55076;PMS7003;40971;44.702;11.030;2024-03-02T21:13:40;37.00;34.00;24.00
55076;PMS7003;40971;44.702;11.030;2024-03-02T21:23:43;36.80;31.80;20.60
55076;PMS7003;40971;44.702;11.030;2024-03-02T21:33:45;37.33;36.33;24.00
55076;PMS7003;40971;44.702;11.030;2024-03-02T21:43:47;40.50;40.50;27.00
55076;PMS7003;40971;44.702;11.030;2024-03-02T21:53:49;35.20;35.20;22.40
55076;PMS7003;40971;44.702;11.030;2024-03-02T22:03:51;42.33;39.67;27.00
55076;PMS7003;40971;44.702;11.030;2024-03-02T22:13:52;39.67;37.67;24.00
55076;PMS7003;40971;44.702;11.030;2024-03-02T22:23:54;34.50;33.75;21.00
55076;PMS7003;40971;44.702;11.030;2024-03-02T22:33:56;36.00;34.00;24.00
55076;PMS7003;40971;44.702;11.030;2024-03-02T22:43:57;33.67;32.33;19.67
55076;PMS7003;40971;44.702;11.030;2024-03-02T22:54:02;43.20;43.20;25.40
55076;PMS7003;40971;44.702;11.030;2024-03-02T23:04:04;44.80;42.40;26.60
55076;PMS7003;40971;44.702;11.030;2024-03-02T23:14:05;42.67;42.67;27.33
55076;PMS7003;40971;44.702;11.030;2024-03-02T23:24:09;46.50;41.50;26.00
55076;PMS7003;40971;44.702;11.030;2024-03-02T23:34:11;44.20;41.20;27.00
55076;PMS7003;40971;44.702;11.030;2024-03-02T23:44:14;48.00;42.00;29.33
55076;PMS7003;40971;44.702;11.030;2024-03-02T23:54:16;51.50;48.00;30.00
